Time;durP1;ratioP1;P1;durP2;ratioP2;P2;SDS_P1;SDS_P2;PMS_P1;PMS_P2;Temp;Humidity;BMP_temperature;BMP_pressure;BME280_temperature;BME280_humidity;BME280_pressure;Samples;Min_cycle;Max_cycle;Signal;HPM_P1;HPM_P2
2022/08/15 05:00:07;;;;;;;4.37;4.00;;;21.70;97.20;;;;;;1728574;28;20188;-69
2022/08/15 05:01:02;;;;;;;4.70;3.75;;;21.70;97.20;;;;;;1728499;28;20547;-69
2022/08/15 05:01:53;;;;;;;4.70;3.93;;;21.70;97.20;;;;;;1728387;28;20247;-69
2022/08/15 05:02:57;;;;;;;4.05;3.63;;;21.70;97.20;;;;;;1728411;28;20444;-69
2022/08/15 05:03:49;;;;;;;3.70;3.40;;;21.70;97.20;;;;;;1728620;28;20565;-69
2022/08/15 05:04:40;;;;;;;5.03;3.70;;;21.70;97.20;;;;;;1728396;28;20231;-69
2022/08/15 05:05:34;;;;;;;4.53;4.13;;;21.70;97.20;;;;;;1728507;28;20482;-70
2022/08/15 05:06:25;;;;;;;5.10;3.80;;;21.70;97.20;;;;;;1728483;28;20212;-70
2022/08/15 05:07:17;;;;;;;3.83;3.50;;;21.60;97.20;;;;;;1728460;28;20518;-69
2022/08/15 05:08:08;;;;;;;6.10;3.67;;;21.60;97.20;;;;;;1728140;28;20201;-69
2022/08/15 05:09:00;;;;;;;5.72;3.90;;;21.60;97.20;;;;;;1728410;28;20641;-70
2022/08/15 05:09:51;;;;;;;3.53;3.22;;;21.60;97.20;;;;;;1728554;28;20204;-69
2022/08/15 05:10:44;;;;;;;3.50;3.20;;;21.60;97.20;;;;;;1728550;28;20259;-70
2022/08/15 05:11:34;;;;;;;3.70;3.40;;;21.50;97.20;;;;;;1728236;28;20288;-70
2022/08/15 05:12:27;;;;;;;4.20;3.80;;;21.50;97.20;;;;;;1728481;28;20203;-70
2022/08/15 05:13:21;;;;;;;5.05;3.97;;;21.50;97.20;;;;;;1728271;28;20625;-69
2022/08/15 05:14:13;;;;;;;4.87;3.50;;;21.50;97.20;;;;;;1728395;28;20254;-70
2022/08/15 05:15:07;;;;;;;3.55;3.25;;;21.50;97.20;;;;;;1728434;28;20867;-70
2022/08/15 05:15:59;;;;;;;4.53;3.40;;;21.50;97.20;;;;;;1728436;28;20214;-69
2022/08/15 05:16:50;;;;;;;5.40;4.10;;;21.50;97.20;;;;;;1728333;28;20240;-69
2022/08/15 05:17:41;;;;;;;4.37;4.00;;;21.50;97.20;;;;;;1728340;28;20209;-70
2022/08/15 05:18:33;;;;;;;5.90;3.85;;;21.50;97.20;;;;;;1728428;28;20208;-70
2022/08/15 05:19:25;;;;;;;4.60;3.38;;;21.50;97.20;;;;;;1728406;28;20201;-69
2022/08/15 05:20:19;;;;;;;3.35;3.05;;;21.50;97.20;;;;;;1728080;28;20201;-69
2022/08/15 05:21:11;;;;;;;3.30;3.10;;;21.50;97.20;;;;;;1728385;28;20197;-70
2022/08/15 05:22:02;;;;;;;4.30;3.88;;;21.50;97.20;;;;;;1728136;28;20204;-69
2022/08/15 05:22:55;;;;;;;3.63;3.30;;;21.50;97.20;;;;;;1728257;28;20735;-69
2022/08/15 05:23:47;;;;;;;4.03;3.67;;;21.50;97.20;;;;;;1728411;28;20196;-69
2022/08/15 05:24:38;;;;;;;4.13;3.83;;;21.50;97.20;;;;;;1728350;28;20212;-69
2022/08/15 05:25:32;;;;;;;3.53;3.23;;;21.50;97.20;;;;;;1728463;28;20231;-69
2022/08/15 05:26:22;;;;;;;3.55;3.25;;;21.50;97.20;;;;;;1728366;28;20792;-70
2022/08/15 05:27:14;;;;;;;3.40;3.10;;;21.50;97.20;;;;;;1728299;28;20307;-69
2022/08/15 05:28:05;;;;;;;3.83;3.40;;;21.50;97.20;;;;;;1728318;28;20208;-70
2022/08/15 05:28:57;;;;;;;3.50;3.20;;;21.50;97.20;;;;;;1728300;28;20276;-70
2022/08/15 05:29:48;;;;;;;3.50;3.20;;;21.50;97.20;;;;;;1728353;28;20488;-69
2022/08/15 05:30:41;;;;;;;4.13;3.73;;;21.50;97.20;;;;;;1728278;28;20262;-69
2022/08/15 05:31:32;;;;;;;4.05;3.47;;;21.50;97.20;;;;;;1728010;28;20450;-69
2022/08/15 05:32:24;;;;;;;3.80;3.40;;;21.50;97.20;;;;;;1728289;28;20211;-70
2022/08/15 05:33:17;;;;;;;3.47;3.17;;;21.50;97.20;;;;;;1728234;28;20235;-70
2022/08/15 05:34:10;;;;;;;4.63;3.50;;;21.50;97.20;;;;;;1727929;28;20200;-69
2022/08/15 05:35:00;;;;;;;3.83;3.50;;;21.50;97.20;;;;;;1728240;28;20303;-70
2022/08/15 05:35:56;;;;;;;5.30;3.10;;;21.50;97.20;;;;;;1728388;28;20226;-69
2022/08/15 05:36:50;;;;;;;3.42;3.13;;;21.50;97.20;;;;;;1728370;28;20584;-69
2022/08/15 05:37:44;;;;;;;4.03;3.08;;;21.50;97.20;;;;;;1728267;28;20574;-69
2022/08/15 05:38:38;;;;;;;4.93;3.15;;;21.50;97.20;;;;;;1728166;28;20204;-69
2022/08/15 05:39:33;;;;;;;4.38;3.20;;;21.50;97.20;;;;;;1728293;28;20283;-70
2022/08/15 05:40:24;;;;;;;3.50;3.20;;;21.40;97.20;;;;;;1728229;28;20270;-69
2022/08/15 05:41:25;;;;;;;3.72;3.15;;;21.40;97.20;;;;;;1727976;28;20200;-70
2022/08/15 05:42:30;;;;;;;3.83;3.20;;;21.40;97.20;;;;;;1728229;28;20208;-70
2022/08/15 05:43:32;;;;;;;5.65;3.10;;;21.40;97.20;;;;;;1728233;28;20652;-69
2022/08/15 05:44:28;;;;;;;3.45;2.78;;;21.40;97.20;;;;;;1728118;28;20216;-69
2022/08/15 05:45:30;;;;;;;4.32;3.00;;;21.40;97.20;;;;;;1728282;28;20590;-69
2022/08/15 05:46:30;;;;;;;3.75;3.40;;;21.40;97.20;;;;;;1728188;28;20291;-69
2022/08/15 05:47:30;;;;;;;3.33;2.55;;;21.40;97.20;;;;;;1727948;28;20287;-68
2022/08/15 05:48:29;;;;;;;3.33;3.03;;;21.40;97.20;;;;;;1726182;28;20647;-69
2022/08/15 05:49:28;;;;;;;4.35;3.10;;;21.40;97.20;;;;;;1726135;28;20332;-69
2022/08/15 05:50:25;;;;;;;3.45;3.15;;;21.50;97.20;;;;;;1727412;28;20197;-68
2022/08/15 05:51:25;;;;;;;3.30;3.00;;;21.50;97.20;;;;;;1727005;28;20205;-68
2022/08/15 05:52:28;;;;;;;3.00;2.75;;;21.50;97.20;;;;;;1727831;28;20261;-69
2022/08/15 05:53:31;;;;;;;6.05;3.10;;;21.50;97.20;;;;;;1727057;28;20224;-69
2022/08/15 05:54:30;;;;;;;3.35;2.60;;;21.50;97.20;;;;;;1722148;28;20205;-68
2022/08/15 05:55:35;;;;;;;3.50;3.20;;;21.50;97.20;;;;;;1727427;28;20267;-68
2022/08/15 05:56:39;;;;;;;3.70;3.40;;;21.50;97.20;;;;;;1727923;28;20205;-69
2022/08/15 05:57:35;;;;;;;5.70;3.25;;;21.50;97.20;;;;;;1728097;28;20204;-68
2022/08/15 05:58:40;;;;;;;4.13;3.28;;;21.50;97.20;;;;;;1727971;28;20189;-68
2022/08/15 05:59:39;;;;;;;4.43;2.80;;;21.50;97.20;;;;;;1728064;28;20228;-69
2022/08/15 06:00:31;;;;;;;2.92;2.72;;;21.50;97.20;;;;;;1728062;28;20215;-69
2022/08/15 06:01:33;;;;;;;3.20;2.90;;;21.50;97.20;;;;;;1727731;28;20200;-68
2022/08/15 06:02:31;;;;;;;3.35;3.00;;;21.50;97.20;;;;;;1721281;28;20205;-69
2022/08/15 06:03:26;;;;;;;3.97;3.40;;;21.50;97.20;;;;;;1721256;28;20225;-69
2022/08/15 06:04:22;;;;;;;3.05;2.70;;;21.50;97.20;;;;;;1721277;28;20217;-69
2022/08/15 06:05:18;;;;;;;3.25;2.92;;;21.50;97.20;;;;;;1721237;28;20205;-69
2022/08/15 06:06:12;;;;;;;3.90;3.03;;;21.50;97.20;;;;;;1721310;28;20212;-69
2022/08/15 06:07:12;;;;;;;5.03;2.80;;;21.50;97.20;;;;;;1720587;28;20216;-69
2022/08/15 06:08:09;;;;;;;3.75;2.63;;;21.50;97.20;;;;;;1720757;28;20197;-69
2022/08/15 06:09:07;;;;;;;3.20;2.55;;;21.50;97.20;;;;;;1720762;28;20198;-69
2022/08/15 06:10:04;;;;;;;2.65;2.45;;;21.50;97.20;;;;;;1720730;28;20229;-69
2022/08/15 06:11:03;;;;;;;5.05;2.88;;;21.50;97.20;;;;;;1720993;28;20201;-69
2022/08/15 06:11:55;;;;;;;2.97;2.78;;;21.50;97.20;;;;;;1721154;28;20201;-69
2022/08/15 06:12:50;;;;;;;6.30;2.80;;;21.50;97.20;;;;;;1721369;28;20197;-69
2022/08/15 06:13:45;;;;;;;4.80;3.20;;;21.50;97.20;;;;;;1721250;28;20229;-69
2022/08/15 06:14:40;;;;;;;3.17;2.90;;;21.50;97.20;;;;;;1725395;28;20216;-69
2022/08/15 06:15:37;;;;;;;3.28;2.90;;;21.50;97.20;;;;;;1727700;28;20209;-69
2022/08/15 06:16:39;;;;;;;3.03;2.70;;;21.50;97.20;;;;;;1727708;28;20188;-69
2022/08/15 06:17:37;;;;;;;2.85;2.63;;;21.50;97.20;;;;;;1727226;28;20200;-69
2022/08/15 06:18:31;;;;;;;2.97;2.65;;;21.60;97.20;;;;;;1726019;28;20624;-69
2022/08/15 06:19:26;;;;;;;2.88;2.67;;;21.60;97.20;;;;;;1727339;28;20212;-69
2022/08/15 06:20:21;;;;;;;3.20;2.90;;;21.60;97.20;;;;;;1726657;28;20275;-69
2022/08/15 06:21:21;;;;;;;3.60;2.90;;;21.60;97.20;;;;;;1726024;28;20207;-69
2022/08/15 06:22:39;;;;;;;5.50;2.83;;;21.70;97.20;;;;;;1725900;28;20302;-69
2022/08/15 06:23:41;;;;;;;3.20;2.55;;;21.70;97.20;;;;;;1726442;28;20180;-69
2022/08/15 06:24:39;;;;;;;3.50;3.17;;;21.70;97.20;;;;;;1726380;28;20196;-69
2022/08/15 06:25:38;;;;;;;2.83;2.63;;;21.80;97.20;;;;;;1727932;28;20232;-69
2022/08/15 06:26:41;;;;;;;3.80;2.80;;;21.80;97.20;;;;;;1726194;28;20279;-69
2022/08/15 06:27:39;;;;;;;4.30;3.00;;;21.80;97.20;;;;;;1726668;28;20193;-69
2022/08/15 06:28:49;;;;;;;3.78;2.70;;;21.80;97.20;;;;;;1726169;28;20200;-69
2022/08/15 06:30:00;;;;;;;5.35;2.97;;;21.80;97.20;;;;;;1727524;28;20208;-69
2022/08/15 06:31:01;;;;;;;3.28;2.80;;;21.80;97.20;;;;;;1725933;28;20189;-69
2022/08/15 06:31:58;;;;;;;3.25;2.95;;;21.80;97.20;;;;;;1727477;28;20185;-69
2022/08/15 06:32:56;;;;;;;6.18;2.85;;;21.80;97.20;;;;;;1727531;28;20196;-70
2022/08/15 06:33:56;;;;;;;2.92;2.63;;;21.80;97.20;;;;;;1726611;28;20212;-70
2022/08/15 06:34:56;;;;;;;2.88;2.50;;;21.80;97.20;;;;;;1727938;28;20615;-69
2022/08/15 06:35:59;;;;;;;4.10;2.90;;;21.80;97.20;;;;;;1721277;28;20558;-70
2022/08/15 06:36:59;;;;;;;3.85;2.72;;;21.80;97.20;;;;;;1721142;28;20225;-69
2022/08/15 06:38:01;;;;;;;3.10;2.72;;;21.80;97.20;;;;;;1721164;28;20225;-69
2022/08/15 06:39:01;;;;;;;3.28;2.83;;;21.80;97.20;;;;;;1726898;28;20719;-70
2022/08/15 06:40:05;;;;;;;2.78;2.58;;;21.80;97.20;;;;;;1727913;28;20224;-70
2022/08/15 06:41:00;;;;;;;4.10;2.50;;;21.90;97.20;;;;;;1727784;28;20201;-69
2022/08/15 06:41:58;;;;;;;3.00;2.80;;;21.90;97.20;;;;;;1727789;28;20200;-69
2022/08/15 06:42:49;;;;;;;3.35;2.45;;;21.90;97.20;;;;;;1727426;28;20212;-70
2022/08/15 06:43:44;;;;;;;3.45;2.63;;;21.90;97.20;;;;;;1727859;28;20228;-70
2022/08/15 06:44:34;;;;;;;3.08;2.72;;;21.80;97.20;;;;;;1727821;28;20204;-70
2022/08/15 06:45:28;;;;;;;2.83;2.63;;;21.80;97.20;;;;;;1727928;28;20224;-69
2022/08/15 06:46:21;;;;;;;3.10;2.80;;;21.80;97.20;;;;;;1727128;28;20215;-70
2022/08/15 06:47:15;;;;;;;3.60;3.00;;;21.80;97.20;;;;;;1727577;28;20231;-69
2022/08/15 06:48:10;;;;;;;3.75;2.80;;;21.80;97.20;;;;;;1727888;28;20208;-70
2022/08/15 06:49:03;;;;;;;3.10;2.75;;;21.80;97.20;;;;;;1727722;28;20222;-69
2022/08/15 06:50:05;;;;;;;3.63;3.00;;;21.80;97.20;;;;;;1727800;28;20208;-70
2022/08/15 06:50:59;;;;;;;4.25;2.65;;;21.80;97.20;;;;;;1727861;28;20664;-70
2022/08/15 06:51:52;;;;;;;3.42;3.00;;;21.80;97.20;;;;;;1727631;28;20222;-70
2022/08/15 06:52:49;;;;;;;3.10;2.75;;;21.80;97.20;;;;;;1727400;28;20668;-70
2022/08/15 06:53:48;;;;;;;3.08;2.85;;;21.70;97.20;;;;;;1727829;28;20741;-70
2022/08/15 06:54:40;;;;;;;3.53;3.22;;;21.80;97.20;;;;;;1727728;28;20636;-69
2022/08/15 06:55:46;;;;;;;3.72;2.95;;;21.80;97.20;;;;;;1727744;28;20215;-69
2022/08/15 06:56:49;;;;;;;2.65;2.45;;;21.80;97.20;;;;;;1727694;28;20225;-69
2022/08/15 06:57:47;;;;;;;3.50;2.70;;;21.90;97.20;;;;;;1727820;28;20215;-69
2022/08/15 06:58:45;;;;;;;3.10;2.67;;;21.90;97.20;;;;;;1727861;28;20224;-69
2022/08/15 06:59:46;;;;;;;3.30;2.70;;;21.90;97.20;;;;;;1727822;28;20212;-70
2022/08/15 07:00:42;;;;;;;4.55;2.70;;;22.00;97.20;;;;;;1728007;28;20204;-69
2022/08/15 07:01:44;;;;;;;3.50;2.97;;;22.00;97.20;;;;;;1727605;28;20207;-70
2022/08/15 07:02:53;;;;;;;3.20;2.60;;;22.00;97.20;;;;;;1727623;28;20238;-70
2022/08/15 07:03:52;;;;;;;2.85;2.65;;;22.10;97.20;;;;;;1727786;28;20201;-70
2022/08/15 07:04:57;;;;;;;2.90;2.70;;;22.20;97.20;;;;;;1727778;28;20287;-69
2022/08/15 07:05:51;;;;;;;3.00;2.70;;;22.20;97.20;;;;;;1727778;28;20200;-70
2022/08/15 07:06:47;;;;;;;2.85;2.65;;;22.20;97.20;;;;;;1727584;28;20220;-70
2022/08/15 07:07:45;;;;;;;2.60;2.28;;;22.30;97.20;;;;;;1727767;28;20594;-70
2022/08/15 07:08:41;;;;;;;2.83;2.47;;;22.30;97.20;;;;;;1727364;28;20228;-70
2022/08/15 07:09:42;;;;;;;3.03;2.72;;;22.30;97.20;;;;;;1727746;28;20584;-69
2022/08/15 07:10:41;;;;;;;3.22;2.92;;;22.40;97.20;;;;;;1727723;28;20211;-70
2022/08/15 07:11:41;;;;;;;2.88;2.42;;;22.40;97.20;;;;;;1727395;28;20251;-70
2022/08/15 07:12:40;;;;;;;3.15;2.85;;;22.40;97.20;;;;;;1727716;28;20201;-69
2022/08/15 07:13:38;;;;;;;4.72;2.95;;;22.50;97.20;;;;;;1727650;28;20220;-69
2022/08/15 07:14:35;;;;;;;3.00;2.70;;;22.50;97.20;;;;;;1727660;28;20201;-70
2022/08/15 07:15:36;;;;;;;3.53;2.70;;;22.50;97.20;;;;;;1727707;28;20236;-70
2022/08/15 07:16:36;;;;;;;2.78;2.50;;;22.60;97.20;;;;;;1727616;28;20231;-70
2022/08/15 07:17:33;;;;;;;2.78;2.50;;;22.60;97.20;;;;;;1727763;28;20227;-69
2022/08/15 07:18:34;;;;;;;3.35;2.60;;;22.60;97.20;;;;;;1727625;28;20204;-70
2022/08/15 07:19:26;;;;;;;3.53;2.25;;;22.60;97.20;;;;;;1727685;28;20263;-70
2022/08/15 07:20:18;;;;;;;2.60;2.40;;;22.60;97.20;;;;;;1727630;28;20251;-70
2022/08/15 07:21:12;;;;;;;2.70;2.45;;;22.60;97.20;;;;;;1727632;28;20258;-69
2022/08/15 07:22:06;;;;;;;4.50;3.03;;;22.70;97.20;;;;;;1727447;28;20197;-69
2022/08/15 07:22:57;;;;;;;2.92;2.58;;;22.70;97.20;;;;;;1727471;28;20216;-70
2022/08/15 07:24:08;;;;;;;3.50;2.57;;;22.70;97.20;;;;;;1727666;28;20287;-70
2022/08/15 07:24:59;;;;;;;6.63;3.53;;;22.80;97.20;;;;;;1727368;28;20285;-70
2022/08/15 07:25:53;;;;;;;3.80;2.37;;;22.80;97.20;;;;;;1727453;28;20193;-70
2022/08/15 07:26:49;;;;;;;3.35;2.35;;;22.80;97.20;;;;;;1727152;28;20220;-70
2022/08/15 07:27:41;;;;;;;3.25;2.50;;;22.90;97.20;;;;;;1727553;28;20311;-69
2022/08/15 07:28:34;;;;;;;3.35;2.40;;;22.90;97.20;;;;;;1727475;28;20208;-70
2022/08/15 07:29:31;;;;;;;2.97;2.30;;;22.90;97.20;;;;;;1727605;28;20204;-70
2022/08/15 07:30:27;;;;;;;2.65;2.40;;;22.90;97.20;;;;;;1727570;28;20448;-70
2022/08/15 07:31:25;;;;;;;2.53;2.33;;;23.00;97.20;;;;;;1727313;28;20270;-70
2022/08/15 07:32:24;;;;;;;2.60;2.40;;;23.00;97.20;;;;;;1727556;28;20232;-70
2022/08/15 07:33:39;;;;;;;2.80;2.30;;;23.00;97.20;;;;;;1727464;28;20741;-70
2022/08/15 07:34:30;;;;;;;2.70;2.50;;;23.00;97.20;;;;;;1727577;28;20239;-69
2022/08/15 07:35:26;;;;;;;3.13;2.60;;;23.10;97.20;;;;;;1727481;28;20236;-69
2022/08/15 07:36:23;;;;;;;2.83;2.53;;;23.10;97.20;;;;;;1727471;28;20296;-70
2022/08/15 07:37:20;;;;;;;2.55;2.35;;;23.10;97.20;;;;;;1727512;28;20215;-69
2022/08/15 07:38:12;;;;;;;2.50;2.30;;;23.20;97.20;;;;;;1727572;28;20201;-70
2022/08/15 07:39:23;;;;;;;3.65;2.25;;;23.20;97.20;;;;;;1727491;28;20210;-70
2022/08/15 07:40:19;;;;;;;3.08;2.42;;;23.30;97.20;;;;;;1727595;28;20225;-69
2022/08/15 07:41:22;;;;;;;2.50;2.20;;;23.40;97.20;;;;;;1727193;28;20711;-69
2022/08/15 07:42:15;;;;;;;2.50;2.30;;;23.50;97.20;;;;;;1727591;28;20443;-69
2022/08/15 07:43:26;;;;;;;2.43;2.23;;;23.50;97.20;;;;;;1727558;28;20203;-70
2022/08/15 07:44:18;;;;;;;3.80;2.50;;;23.60;97.20;;;;;;1727585;28;20443;-70
2022/08/15 07:45:19;;;;;;;2.55;2.35;;;23.60;97.20;;;;;;1727605;28;20204;-70
2022/08/15 07:46:13;;;;;;;2.03;1.92;;;23.60;97.20;;;;;;1727565;28;20197;-70
2022/08/15 07:47:19;;;;;;;3.17;2.15;;;23.60;97.20;;;;;;1727353;28;20600;-69
2022/08/15 07:48:22;;;;;;;2.88;2.10;;;23.50;97.20;;;;;;1727530;28;20208;-69
2022/08/15 07:49:18;;;;;;;2.85;2.30;;;23.50;97.20;;;;;;1727501;28;20254;-69
2022/08/15 07:50:28;;;;;;;1.98;1.83;;;23.50;97.20;;;;;;1727191;28;20575;-70
2022/08/15 07:51:25;;;;;;;3.05;2.00;;;23.50;97.20;;;;;;1727251;28;20207;-70
2022/08/15 07:52:21;;;;;;;5.70;2.00;;;23.50;97.20;;;;;;1727506;28;20224;-70
2022/08/15 07:53:17;;;;;;;1.83;1.73;;;23.50;97.20;;;;;;1727430;28;20950;-69
2022/08/15 07:54:24;;;;;;;3.28;2.10;;;23.50;97.20;;;;;;1727457;28;20625;-69
2022/08/15 07:55:19;;;;;;;2.10;1.92;;;23.50;97.20;;;;;;1727491;28;20196;-70
2022/08/15 07:56:13;;;;;;;3.60;1.92;;;23.50;97.20;;;;;;1727470;28;20227;-70
2022/08/15 07:57:07;;;;;;;4.50;2.33;;;23.50;97.20;;;;;;1727262;28;20295;-70
2022/08/15 07:58:02;;;;;;;1.92;1.80;;;23.50;97.20;;;;;;1726610;28;20556;-69
2022/08/15 07:58:57;;;;;;;2.03;1.83;;;23.50;97.20;;;;;;1727467;28;20208;-70
2022/08/15 08:00:08;;;;;;;1.85;1.70;;;23.50;97.20;;;;;;1727545;28;20813;-69
2022/08/15 08:01:09;;;;;;;1.80;1.70;;;23.50;97.20;;;;;;1727417;28;20251;-70
2022/08/15 08:02:06;;;;;;;2.67;2.33;;;23.50;97.20;;;;;;1727209;28;20211;-70
2022/08/15 08:03:03;;;;;;;2.10;2.00;;;23.50;97.20;;;;;;1727391;28;20554;-70
2022/08/15 08:03:59;;;;;;;2.95;2.13;;;23.60;97.20;;;;;;1727382;28;20660;-70
2022/08/15 08:04:52;;;;;;;2.13;1.92;;;23.60;97.20;;;;;;1727365;28;20219;-69
2022/08/15 08:05:53;;;;;;;1.60;1.50;;;23.60;97.20;;;;;;1727181;28;20205;-70
2022/08/15 08:06:52;;;;;;;2.17;1.98;;;23.70;97.20;;;;;;1727428;28;20699;-70
2022/08/15 08:07:45;;;;;;;2.28;1.90;;;23.70;97.20;;;;;;1727483;28;20231;-70
2022/08/15 08:08:42;;;;;;;3.40;1.98;;;23.80;97.20;;;;;;1727390;28;20211;-69
2022/08/15 08:09:39;;;;;;;2.03;1.83;;;23.80;97.20;;;;;;1727489;28;20200;-70
2022/08/15 08:10:35;;;;;;;7.93;2.00;;;23.80;97.20;;;;;;1727484;28;20197;-69
2022/08/15 08:11:38;;;;;;;3.40;1.92;;;23.80;97.20;;;;;;1727157;28;20605;-69
2022/08/15 08:12:42;;;;;;;2.85;1.73;;;23.80;97.20;;;;;;1727343;28;20287;-70
2022/08/15 08:13:46;;;;;;;4.07;1.73;;;23.80;97.20;;;;;;1726802;28;20216;-70
2022/08/15 08:14:50;;;;;;;1.73;1.63;;;23.80;97.20;;;;;;1727237;28;20502;-70
2022/08/15 08:15:48;;;;;;;2.10;1.90;;;23.80;97.20;;;;;;1727366;28;20295;-70
2022/08/15 08:16:49;;;;;;;1.65;1.55;;;23.80;97.20;;;;;;1727155;28;20235;-70
2022/08/15 08:17:46;;;;;;;2.75;2.10;;;23.80;97.20;;;;;;1727322;28;20227;-70
2022/08/15 08:18:45;;;;;;;2.70;1.80;;;23.90;97.20;;;;;;1727329;28;20201;-70
2022/08/15 08:20:03;;;;;;;2.10;1.90;;;23.90;97.20;;;;;;1727355;28;20204;-70
2022/08/15 08:21:01;;;;;;;3.20;1.80;;;23.90;97.20;;;;;;1727383;28;20287;-70
2022/08/15 08:21:58;;;;;;;2.63;1.70;;;24.00;97.20;;;;;;1727144;28;20207;-70
2022/08/15 08:22:55;;;;;;;2.25;1.60;;;24.10;97.20;;;;;;1727306;28;20602;-70
2022/08/15 08:23:51;;;;;;;2.85;1.70;;;24.10;97.20;;;;;;1727344;28;20619;-70
2022/08/15 08:24:54;;;;;;;1.70;1.58;;;24.20;97.20;;;;;;1727349;28;20197;-70
2022/08/15 08:25:56;;;;;;;1.43;1.33;;;24.30;97.20;;;;;;1727399;28;20656;-70
2022/08/15 08:26:54;;;;;;;2.33;1.47;;;24.30;97.20;;;;;;1727180;28;20913;-70
2022/08/15 08:27:57;;;;;;;1.70;1.60;;;24.30;97.20;;;;;;1727318;28;20527;-70
2022/08/15 08:28:57;;;;;;;2.13;1.70;;;24.30;97.20;;;;;;1727408;28;20440;-70
2022/08/15 08:29:56;;;;;;;2.33;2.00;;;24.30;97.20;;;;;;1727079;28;20435;-69
2022/08/15 08:31:02;;;;;;;2.80;1.73;;;24.30;97.20;;;;;;1727281;28;20451;-69
2022/08/15 08:32:04;;;;;;;2.05;1.83;;;24.40;97.20;;;;;;1727124;28;20212;-69
2022/08/15 08:33:00;;;;;;;2.25;1.42;;;24.30;97.20;;;;;;1727266;28;20682;-70
2022/08/15 08:34:13;;;;;;;2.42;1.73;;;24.30;97.20;;;;;;1727400;28;20205;-69
2022/08/15 08:35:17;;;;;;;3.15;1.77;;;24.40;97.20;;;;;;1727334;28;20200;-69
2022/08/15 08:36:21;;;;;;;2.03;1.80;;;24.40;97.20;;;;;;1727441;28;20284;-70
2022/08/15 08:37:20;;;;;;;1.83;1.65;;;24.40;97.20;;;;;;1727376;28;20217;-70
2022/08/15 08:38:25;;;;;;;1.73;1.63;;;24.50;97.20;;;;;;1727368;28;20215;-69
2022/08/15 08:39:44;;;;;;;1.60;1.25;;;24.50;97.20;;;;;;1727254;28;20207;-69
2022/08/15 08:42:02;;;;;;;1.60;1.50;;;24.70;97.20;;;;;;1727185;28;20565;-70
2022/08/15 08:43:00;;;;;;;2.42;1.88;;;24.80;97.20;;;;;;1727305;28;20207;-69
2022/08/15 08:43:59;;;;;;;2.00;1.70;;;24.80;97.20;;;;;;1727303;28;20213;-70
2022/08/15 08:45:03;;;;;;;1.50;1.40;;;24.90;97.20;;;;;;1727280;28;20199;-69
2022/08/15 08:45:59;;;;;;;2.23;1.70;;;24.90;97.20;;;;;;1726979;28;20447;-70
2022/08/15 08:47:16;;;;;;;1.67;1.57;;;25.00;97.20;;;;;;1724355;28;20967;-69
2022/08/15 08:48:25;;;;;;;1.67;1.58;;;25.00;97.20;;;;;;1727191;28;20532;-69
2022/08/15 08:49:25;;;;;;;1.90;1.70;;;25.10;97.20;;;;;;1727222;28;20235;-69
2022/08/15 08:50:28;;;;;;;1.65;1.55;;;25.10;97.20;;;;;;1727294;28;20702;-69
2022/08/15 08:51:34;;;;;;;2.55;1.70;;;25.10;97.20;;;;;;1727052;28;20552;-69
2022/08/15 08:52:33;;;;;;;1.80;1.70;;;25.10;97.20;;;;;;1727260;28;20209;-69
2022/08/15 08:53:32;;;;;;;2.00;1.80;;;25.10;97.20;;;;;;1727247;28;20210;-69
2022/08/15 08:54:30;;;;;;;2.25;1.80;;;25.10;97.20;;;;;;1727159;28;20444;-69
2022/08/15 08:55:27;;;;;;;1.90;1.80;;;25.10;97.20;;;;;;1727195;28;20209;-69
2022/08/15 08:56:25;;;;;;;5.13;2.35;;;25.10;97.20;;;;;;1727038;28;20447;-70
2022/08/15 08:57:20;;;;;;;2.00;1.90;;;25.10;97.20;;;;;;1727110;28;20209;-69
2022/08/15 08:58:17;;;;;;;1.90;1.80;;;25.10;97.20;;;;;;1727072;28;20452;-69
2022/08/15 08:59:17;;;;;;;2.50;1.87;;;25.20;97.20;;;;;;1727310;28;20455;-69
2022/08/15 09:00:13;;;;;;;2.50;2.30;;;25.30;97.20;;;;;;1727245;28;20574;-69
2022/08/15 09:01:07;;;;;;;3.37;1.90;;;25.40;97.20;;;;;;1727228;28;20444;-69
2022/08/15 09:02:04;;;;;;;1.73;1.63;;;25.40;97.20;;;;;;1727004;28;20447;-69
2022/08/15 09:03:02;;;;;;;1.93;1.83;;;25.50;97.20;;;;;;1727138;28;20212;-70
2022/08/15 09:04:00;;;;;;;2.27;1.53;;;25.50;97.20;;;;;;1727174;28;20439;-69
2022/08/15 09:04:55;;;;;;;1.80;1.60;;;25.50;97.20;;;;;;1727243;28;20443;-69
2022/08/15 09:05:51;;;;;;;2.53;1.93;;;25.40;97.20;;;;;;1727199;28;20442;-70
2022/08/15 09:06:44;;;;;;;1.73;1.63;;;25.50;97.20;;;;;;1727121;28;20834;-69
2022/08/15 09:07:46;;;;;;;3.33;1.70;;;25.40;97.20;;;;;;1727188;28;20280;-69
2022/08/15 09:08:43;;;;;;;2.70;1.70;;;25.50;97.20;;;;;;1727244;28;20247;-69
2022/08/15 09:09:38;;;;;;;2.17;2.00;;;25.50;97.20;;;;;;1727211;28;20440;-70
2022/08/15 09:10:34;;;;;;;1.63;1.53;;;25.50;97.20;;;;;;1727287;28;20959;-69
2022/08/15 09:11:29;;;;;;;2.58;2.20;;;25.60;97.20;;;;;;1726938;28;20451;-69
2022/08/15 09:13:37;;;;;;;1.60;1.50;;;25.70;97.20;;;;;;1727351;28;20423;-69
2022/08/15 09:14:33;;;;;;;1.87;1.60;;;25.80;97.20;;;;;;1727153;28;20443;-69
2022/08/15 09:15:26;;;;;;;3.77;2.13;;;25.80;97.20;;;;;;1727203;28;20447;-69
2022/08/15 09:16:21;;;;;;;1.73;1.63;;;25.90;97.20;;;;;;1727067;28;20518;-69
2022/08/15 09:17:15;;;;;;;1.95;1.85;;;25.90;97.20;;;;;;1727163;28;20444;-69
2022/08/15 09:18:10;;;;;;;2.63;2.13;;;26.00;97.20;;;;;;1727255;28;20201;-69
2022/08/15 09:19:06;;;;;;;1.60;1.50;;;26.10;97.20;;;;;;1727165;28;20470;-69
2022/08/15 09:20:04;;;;;;;2.70;2.03;;;26.20;97.20;;;;;;1727101;28;20501;-69
2022/08/15 09:20:58;;;;;;;1.80;1.70;;;26.30;97.20;;;;;;1727200;28;20535;-69
2022/08/15 09:21:50;;;;;;;1.87;1.77;;;26.30;97.20;;;;;;1726873;28;20530;-69
2022/08/15 09:22:41;;;;;;;2.33;2.13;;;26.30;97.20;;;;;;1726982;28;20450;-69
2022/08/15 09:23:37;;;;;;;1.60;1.50;;;26.30;97.20;;;;;;1727127;28;20447;-69
2022/08/15 09:24:29;;;;;;;2.13;1.80;;;26.30;97.20;;;;;;1727192;28;20216;-69
2022/08/15 09:25:23;;;;;;;1.87;1.60;;;26.30;97.20;;;;;;1727794;28;20450;-69
2022/08/15 09:26:20;;;;;;;2.00;1.50;;;26.40;97.20;;;;;;1728409;28;20458;-69
2022/08/15 09:27:20;;;;;;;3.10;1.80;;;26.40;97.20;;;;;;1728410;28;20927;-69
2022/08/15 09:28:19;;;;;;;2.67;1.80;;;26.50;97.20;;;;;;1728055;28;20443;-69
2022/08/15 09:29:22;;;;;;;2.27;1.90;;;26.50;97.20;;;;;;1728450;28;20477;-70
2022/08/15 09:30:13;;;;;;;1.60;1.50;;;26.60;97.20;;;;;;1728432;28;20486;-69
2022/08/15 09:31:11;;;;;;;2.03;1.93;;;26.70;97.20;;;;;;1728318;28;20459;-69
2022/08/15 09:32:18;;;;;;;2.27;2.17;;;26.70;97.20;;;;;;1728060;28;20205;-70
2022/08/15 09:33:24;;;;;;;2.40;1.90;;;26.80;97.20;;;;;;1728286;28;20489;-69
2022/08/15 09:34:35;;;;;;;2.00;1.80;;;26.80;97.20;;;;;;1728443;28;20443;-69
2022/08/15 09:35:37;;;;;;;2.00;1.90;;;26.90;97.20;;;;;;1728433;28;20533;-69
2022/08/15 09:36:48;;;;;;;1.60;1.50;;;27.00;97.20;;;;;;1728325;28;20440;-69
2022/08/15 09:37:56;;;;;;;2.13;1.93;;;27.00;97.20;;;;;;1728264;28;20448;-70
2022/08/15 09:38:57;;;;;;;3.33;1.70;;;27.00;97.20;;;;;;1728376;28;20435;-70
2022/08/15 09:40:21;;;;;;;1.70;1.60;;;27.00;97.20;;;;;;1728420;28;20446;-69
2022/08/15 09:41:44;;;;;;;2.13;1.80;;;27.00;97.20;;;;;;1728347;28;20455;-69
2022/08/15 09:42:49;;;;;;;1.93;1.60;;;27.10;97.20;;;;;;1721580;28;20471;-70
2022/08/15 09:44:04;;;;;;;2.37;2.17;;;27.10;97.20;;;;;;1728165;28;20534;-70
2022/08/15 09:45:11;;;;;;;2.67;2.30;;;27.10;97.20;;;;;;1724648;28;20443;-69
2022/08/15 09:46:41;;;;;;;1.77;1.67;;;27.20;97.20;;;;;;1728269;28;20443;-69
2022/08/15 09:47:59;;;;;;;1.90;1.80;;;27.30;97.20;;;;;;1728159;28;20464;-69
2022/08/15 09:49:17;;;;;;;4.17;1.80;;;27.40;97.20;;;;;;1728270;28;20439;-69
2022/08/15 09:50:34;;;;;;;2.10;1.90;;;27.40;97.20;;;;;;1728267;28;20888;-70
2022/08/15 09:51:48;;;;;;;2.37;2.17;;;27.50;97.20;;;;;;1728036;28;20451;-69
2022/08/15 09:52:48;;;;;;;2.50;1.97;;;27.50;97.20;;;;;;1728160;28;20458;-69
2022/08/15 09:53:58;;;;;;;2.00;1.67;;;27.50;97.20;;;;;;1728196;28;20447;-69
2022/08/15 09:54:58;;;;;;;3.53;1.80;;;27.40;97.20;;;;;;1728173;28;20447;-69
2022/08/15 09:55:51;;;;;;;2.67;2.00;;;27.40;97.20;;;;;;1728274;28;20949;-70
2022/08/15 09:56:44;;;;;;;1.67;1.57;;;27.40;97.20;;;;;;1728000;28;20467;-69
2022/08/15 09:57:39;;;;;;;3.27;2.10;;;27.40;97.20;;;;;;1728104;28;20448;-69
2022/08/15 09:58:36;;;;;;;2.20;2.03;;;27.40;97.20;;;;;;1728208;28;20459;-70
2022/08/15 09:59:27;;;;;;;2.30;2.10;;;27.40;97.20;;;;;;1728212;28;20938;-70
2022/08/15 10:00:31;;;;;;;2.03;1.83;;;27.40;97.20;;;;;;1728153;28;20885;-70
2022/08/15 10:01:28;;;;;;;2.10;1.90;;;27.40;97.20;;;;;;1727721;28;20208;-70
2022/08/15 10:02:22;;;;;;;2.47;2.27;;;27.40;97.20;;;;;;1727872;28;20961;-70
2022/08/15 10:03:22;;;;;;;1.90;1.73;;;27.40;97.20;;;;;;1728186;28;20795;-70
2022/08/15 10:04:15;;;;;;;2.23;2.03;;;27.40;97.20;;;;;;1728214;28;20456;-70
2022/08/15 10:05:15;;;;;;;2.37;1.90;;;27.40;97.20;;;;;;1728123;28;20439;-69
2022/08/15 10:06:09;;;;;;;2.50;2.30;;;27.40;97.20;;;;;;1728229;28;20435;-69
2022/08/15 10:07:41;;;;;;;2.17;1.97;;;27.40;97.20;;;;;;1727929;28;20536;-70